sensor_id;sensor_type;location;lat;lon;timestamp;P1;durP1;ratioP1;P2;durP2;ratioP2
72864;SDS011;61000;48.120;11.548;2024-02-04T00:01:18;5.13;;;4.40;;
72864;SDS011;61000;48.120;11.548;2024-02-04T00:03:45;5.25;;;4.75;;
72864;SDS011;61000;48.120;11.548;2024-02-04T00:06:12;5.18;;;4.45;;
72864;SDS011;61000;48.120;11.548;2024-02-04T00:08:39;6.03;;;5.30;;
72864;SDS011;61000;48.120;11.548;2024-02-04T00:11:06;5.22;;;4.40;;
72864;SDS011;61000;48.120;11.548;2024-02-04T00:13:36;5.25;;;4.72;;
72864;SDS011;61000;48.120;11.548;2024-02-04T00:16:05;6.00;;;4.88;;
72864;SDS011;61000;48.120;11.548;2024-02-04T00:18:32;5.40;;;4.90;;
72864;SDS011;61000;48.120;11.548;2024-02-04T00:20:59;6.82;;;5.65;;
72864;SDS011;61000;48.120;11.548;2024-02-04T00:23:26;6.68;;;5.25;;
72864;SDS011;61000;48.120;11.548;2024-02-04T00:25:52;5.07;;;4.57;;
72864;SDS011;61000;48.120;11.548;2024-02-04T00:28:19;6.53;;;5.22;;
72864;SDS011;61000;48.120;11.548;2024-02-04T00:30:46;6.35;;;4.85;;
72864;SDS011;61000;48.120;11.548;2024-02-04T00:33:16;6.60;;;4.82;;
72864;SDS011;61000;48.120;11.548;2024-02-04T00:35:43;5.80;;;4.65;;
72864;SDS011;61000;48.120;11.548;2024-02-04T00:38:10;10.27;;;5.43;;
72864;SDS011;61000;48.120;11.548;2024-02-04T00:40:36;6.70;;;5.32;;
72864;SDS011;61000;48.120;11.548;2024-02-04T00:43:03;5.82;;;4.35;;
72864;SDS011;61000;48.120;11.548;2024-02-04T00:45:33;5.43;;;4.95;;
72864;SDS011;61000;48.120;11.548;2024-02-04T00:48:00;5.75;;;4.93;;
72864;SDS011;61000;48.120;11.548;2024-02-04T00:50:28;5.40;;;4.90;;
72864;SDS011;61000;48.120;11.548;2024-02-04T00:52:55;5.60;;;4.95;;
72864;SDS011;61000;48.120;11.548;2024-02-04T00:55:22;7.57;;;5.70;;
72864;SDS011;61000;48.120;11.548;2024-02-04T00:57:51;6.97;;;5.75;;
72864;SDS011;61000;48.120;11.548;2024-02-04T01:00:18;6.68;;;5.88;;
72864;SDS011;61000;48.120;11.548;2024-02-04T01:02:45;8.73;;;6.00;;
72864;SDS011;61000;48.120;11.548;2024-02-04T01:05:12;6.05;;;5.32;;
72864;SDS011;61000;48.120;11.548;2024-02-04T01:07:41;7.28;;;6.47;;
72864;SDS011;61000;48.120;11.548;2024-02-04T01:10:08;7.55;;;6.20;;
72864;SDS011;61000;48.120;11.548;2024-02-04T01:12:35;6.47;;;5.72;;
72864;SDS011;61000;48.120;11.548;2024-02-04T01:15:04;8.50;;;5.85;;
72864;SDS011;61000;48.120;11.548;2024-02-04T01:17:31;6.32;;;5.72;;
72864;SDS011;61000;48.120;11.548;2024-02-04T01:19:59;6.70;;;5.75;;
72864;SDS011;61000;48.120;11.548;2024-02-04T01:22:25;7.80;;;5.85;;
72864;SDS011;61000;48.120;11.548;2024-02-04T01:24:54;7.97;;;5.85;;
72864;SDS011;61000;48.120;11.548;2024-02-04T01:27:21;7.80;;;6.03;;
72864;SDS011;61000;48.120;11.548;2024-02-04T01:29:47;7.05;;;5.57;;
72864;SDS011;61000;48.120;11.548;2024-02-04T01:32:14;7.88;;;6.13;;
72864;SDS011;61000;48.120;11.548;2024-02-04T01:34:41;7.28;;;6.20;;
72864;SDS011;61000;48.120;11.548;2024-02-04T01:37:08;7.30;;;6.07;;
72864;SDS011;61000;48.120;11.548;2024-02-04T01:39:35;6.82;;;5.85;;
72864;SDS011;61000;48.120;11.548;2024-02-04T01:42:04;6.85;;;5.50;;
72864;SDS011;61000;48.120;11.548;2024-02-04T01:44:31;7.75;;;6.25;;
72864;SDS011;61000;48.120;11.548;2024-02-04T01:46:58;6.75;;;5.95;;
72864;SDS011;61000;48.120;11.548;2024-02-04T01:49:25;6.95;;;5.93;;
72864;SDS011;61000;48.120;11.548;2024-02-04T01:51:52;8.18;;;5.90;;
72864;SDS011;61000;48.120;11.548;2024-02-04T01:54:20;9.05;;;6.60;;
72864;SDS011;61000;48.120;11.548;2024-02-04T01:56:48;7.20;;;5.63;;
72864;SDS011;61000;48.120;11.548;2024-02-04T01:59:17;8.88;;;6.60;;
72864;SDS011;61000;48.120;11.548;2024-02-04T02:01:45;7.00;;;5.88;;
72864;SDS011;61000;48.120;11.548;2024-02-04T02:04:13;7.10;;;6.40;;
72864;SDS011;61000;48.120;11.548;2024-02-04T02:06:40;6.00;;;5.40;;
72864;SDS011;61000;48.120;11.548;2024-02-04T02:09:08;7.00;;;5.90;;
72864;SDS011;61000;48.120;11.548;2024-02-04T02:11:37;7.07;;;5.82;;
72864;SDS011;61000;48.120;11.548;2024-02-04T02:14:08;6.88;;;6.03;;
72864;SDS011;61000;48.120;11.548;2024-02-04T02:16:41;10.23;;;5.95;;
72864;SDS011;61000;48.120;11.548;2024-02-04T02:19:13;6.13;;;5.53;;
72864;SDS011;61000;48.120;11.548;2024-02-04T02:21:56;8.15;;;6.00;;
72864;SDS011;61000;48.120;11.548;2024-02-04T02:24:32;7.45;;;6.00;;
72864;SDS011;61000;48.120;11.548;2024-02-04T02:27:00;6.90;;;5.70;;
72864;SDS011;61000;48.120;11.548;2024-02-04T02:29:27;7.10;;;5.72;;
72864;SDS011;61000;48.120;11.548;2024-02-04T02:31:54;7.07;;;5.78;;
72864;SDS011;61000;48.120;11.548;2024-02-04T02:34:21;6.95;;;5.82;;
72864;SDS011;61000;48.120;11.548;2024-02-04T02:36:50;8.82;;;6.32;;
72864;SDS011;61000;48.120;11.548;2024-02-04T02:39:23;8.15;;;5.40;;
72864;SDS011;61000;48.120;11.548;2024-02-04T02:41:55;6.57;;;5.07;;
72864;SDS011;61000;48.120;11.548;2024-02-04T02:44:25;5.95;;;5.30;;
72864;SDS011;61000;48.120;11.548;2024-02-04T02:46:53;7.32;;;5.60;;
72864;SDS011;61000;48.120;11.548;2024-02-04T02:49:23;7.07;;;5.95;;
72864;SDS011;61000;48.120;11.548;2024-02-04T02:51:50;6.18;;;5.40;;
72864;SDS011;61000;48.120;11.548;2024-02-04T02:54:18;7.53;;;5.32;;
72864;SDS011;61000;48.120;11.548;2024-02-04T02:56:44;5.68;;;5.05;;
72864;SDS011;61000;48.120;11.548;2024-02-04T02:59:13;6.80;;;5.45;;
72864;SDS011;61000;48.120;11.548;2024-02-04T03:01:40;7.13;;;5.38;;
72864;SDS011;61000;48.120;11.548;2024-02-04T03:04:07;7.40;;;6.05;;
72864;SDS011;61000;48.120;11.548;2024-02-04T03:06:33;5.97;;;5.28;;
72864;SDS011;61000;48.120;11.548;2024-02-04T03:09:00;8.43;;;4.93;;
72864;SDS011;61000;48.120;11.548;2024-02-04T03:11:27;5.97;;;4.95;;
72864;SDS011;61000;48.120;11.548;2024-02-04T03:13:54;6.25;;;5.15;;
72864;SDS011;61000;48.120;11.548;2024-02-04T03:16:23;6.65;;;4.97;;
72864;SDS011;61000;48.120;11.548;2024-02-04T03:18:51;6.32;;;5.25;;
72864;SDS011;61000;48.120;11.548;2024-02-04T03:21:19;7.70;;;4.97;;
72864;SDS011;61000;48.120;11.548;2024-02-04T03:23:46;5.65;;;5.03;;
72864;SDS011;61000;48.120;11.548;2024-02-04T03:26:16;7.63;;;5.07;;
72864;SDS011;61000;48.120;11.548;2024-02-04T03:28:46;5.25;;;4.57;;
72864;SDS011;61000;48.120;11.548;2024-02-04T03:31:18;4.90;;;4.38;;
72864;SDS011;61000;48.120;11.548;2024-02-04T03:33:47;6.53;;;5.03;;
72864;SDS011;61000;48.120;11.548;2024-02-04T03:36:15;6.53;;;4.97;;
72864;SDS011;61000;48.120;11.548;2024-02-04T03:38:45;4.93;;;4.25;;
72864;SDS011;61000;48.120;11.548;2024-02-04T03:41:12;4.95;;;4.45;;
72864;SDS011;61000;48.120;11.548;2024-02-04T03:43:39;4.50;;;4.05;;
72864;SDS011;61000;48.120;11.548;2024-02-04T03:46:06;5.43;;;4.03;;
72864;SDS011;61000;48.120;11.548;2024-02-04T03:48:33;5.30;;;4.80;;
72864;SDS011;61000;48.120;11.548;2024-02-04T03:51:02;4.60;;;4.20;;
72864;SDS011;61000;48.120;11.548;2024-02-04T03:53:29;5.60;;;4.72;;
72864;SDS011;61000;48.120;11.548;2024-02-04T03:55:56;4.95;;;3.97;;
72864;SDS011;61000;48.120;11.548;2024-02-04T03:58:23;5.45;;;4.25;;
72864;SDS011;61000;48.120;11.548;2024-02-04T04:00:54;4.43;;;3.70;;
72864;SDS011;61000;48.120;11.548;2024-02-04T04:03:21;5.70;;;3.95;;
72864;SDS011;61000;48.120;11.548;2024-02-04T04:05:48;3.60;;;3.30;;
72864;SDS011;61000;48.120;11.548;2024-02-04T04:08:16;4.57;;;3.60;;
72864;SDS011;61000;48.120;11.548;2024-02-04T04:10:44;4.15;;;3.78;;
72864;SDS011;61000;48.120;11.548;2024-02-04T04:13:11;3.92;;;3.30;;
72864;SDS011;61000;48.120;11.548;2024-02-04T04:15:38;3.53;;;3.05;;
72864;SDS011;61000;48.120;11.548;2024-02-04T04:18:06;6.53;;;3.97;;
72864;SDS011;61000;48.120;11.548;2024-02-04T04:20:33;4.15;;;3.63;;
72864;SDS011;61000;48.120;11.548;2024-02-04T04:22:59;4.22;;;3.70;;
72864;SDS011;61000;48.120;11.548;2024-02-04T04:25:28;5.22;;;3.47;;
72864;SDS011;61000;48.120;11.548;2024-02-04T04:27:55;3.88;;;3.25;;
72864;SDS011;61000;48.120;11.548;2024-02-04T04:30:23;3.78;;;3.22;;
72864;SDS011;61000;48.120;11.548;2024-02-04T04:32:50;3.90;;;3.08;;
72864;SDS011;61000;48.120;11.548;2024-02-04T04:35:17;3.60;;;3.30;;
72864;SDS011;61000;48.120;11.548;2024-02-04T04:37:44;5.15;;;3.08;;
72864;SDS011;61000;48.120;11.548;2024-02-04T04:40:11;3.92;;;3.28;;
72864;SDS011;61000;48.120;11.548;2024-02-04T04:42:39;2.97;;;2.78;;
72864;SDS011;61000;48.120;11.548;2024-02-04T04:45:06;3.65;;;2.90;;
72864;SDS011;61000;48.120;11.548;2024-02-04T04:47:34;3.95;;;2.97;;
72864;SDS011;61000;48.120;11.548;2024-02-04T04:50:01;3.42;;;3.00;;
72864;SDS011;61000;48.120;11.548;2024-02-04T04:52:28;2.65;;;2.45;;
72864;SDS011;61000;48.120;11.548;2024-02-04T04:54:55;4.20;;;3.00;;
72864;SDS011;61000;48.120;11.548;2024-02-04T04:57:22;2.47;;;2.28;;
72864;SDS011;61000;48.120;11.548;2024-02-04T04:59:50;4.97;;;4.03;;
72864;SDS011;61000;48.120;11.548;2024-02-04T05:02:17;4.45;;;2.50;;
72864;SDS011;61000;48.120;11.548;2024-02-04T05:04:44;2.53;;;2.35;;
72864;SDS011;61000;48.120;11.548;2024-02-04T05:07:12;3.47;;;2.42;;
72864;SDS011;61000;48.120;11.548;2024-02-04T05:09:39;2.63;;;2.40;;
72864;SDS011;61000;48.120;11.548;2024-02-04T05:12:08;3.28;;;2.70;;
72864;SDS011;61000;48.120;11.548;2024-02-04T05:14:35;3.72;;;2.35;;
72864;SDS011;61000;48.120;11.548;2024-02-04T05:17:03;3.63;;;2.50;;
72864;SDS011;61000;48.120;11.548;2024-02-04T05:19:30;3.22;;;2.50;;
72864;SDS011;61000;48.120;11.548;2024-02-04T05:21:57;2.60;;;2.30;;
72864;SDS011;61000;48.120;11.548;2024-02-04T05:24:24;4.35;;;2.80;;
72864;SDS011;61000;48.120;11.548;2024-02-04T05:26:51;4.28;;;2.65;;
72864;SDS011;61000;48.120;11.548;2024-02-04T05:29:18;4.30;;;3.67;;
72864;SDS011;61000;48.120;11.548;2024-02-04T05:31:45;5.22;;;2.70;;
72864;SDS011;61000;48.120;11.548;2024-02-04T05:34:13;3.05;;;2.75;;
72864;SDS011;61000;48.120;11.548;2024-02-04T05:36:40;4.97;;;3.00;;
72864;SDS011;61000;48.120;11.548;2024-02-04T05:39:10;3.00;;;2.70;;
72864;SDS011;61000;48.120;11.548;2024-02-04T05:41:37;3.40;;;2.97;;
72864;SDS011;61000;48.120;11.548;2024-02-04T05:44:05;3.30;;;3.00;;
72864;SDS011;61000;48.120;11.548;2024-02-04T05:46:33;5.65;;;3.17;;
72864;SDS011;61000;48.120;11.548;2024-02-04T05:49:00;5.93;;;2.90;;
72864;SDS011;61000;48.120;11.548;2024-02-04T05:51:29;3.88;;;3.33;;
72864;SDS011;61000;48.120;11.548;2024-02-04T05:53:57;6.15;;;3.22;;
72864;SDS011;61000;48.120;11.548;2024-02-04T05:56:24;5.25;;;3.67;;
72864;SDS011;61000;48.120;11.548;2024-02-04T05:58:50;6.40;;;3.60;;
72864;SDS011;61000;48.120;11.548;2024-02-04T06:01:17;5.68;;;3.58;;
72864;SDS011;61000;48.120;11.548;2024-02-04T06:03:44;5.55;;;3.60;;
72864;SDS011;61000;48.120;11.548;2024-02-04T06:06:14;7.00;;;3.90;;
72864;SDS011;61000;48.120;11.548;2024-02-04T06:08:42;7.55;;;4.28;;
72864;SDS011;61000;48.120;11.548;2024-02-04T06:11:10;7.45;;;4.30;;
72864;SDS011;61000;48.120;11.548;2024-02-04T06:13:38;6.00;;;4.97;;
72864;SDS011;61000;48.120;11.548;2024-02-04T06:16:05;5.43;;;3.70;;
72864;SDS011;61000;48.120;11.548;2024-02-04T06:18:33;7.35;;;4.35;;
72864;SDS011;61000;48.120;11.548;2024-02-04T06:21:02;4.30;;;3.40;;
72864;SDS011;61000;48.120;11.548;2024-02-04T06:23:29;5.75;;;3.65;;
72864;SDS011;61000;48.120;11.548;2024-02-04T06:25:57;6.72;;;4.10;;
72864;SDS011;61000;48.120;11.548;2024-02-04T06:28:24;8.70;;;4.30;;
72864;SDS011;61000;48.120;11.548;2024-02-04T06:30:51;6.28;;;3.30;;
72864;SDS011;61000;48.120;11.548;2024-02-04T06:33:19;4.82;;;3.50;;
72864;SDS011;61000;48.120;11.548;2024-02-04T06:35:47;5.53;;;3.75;;
72864;SDS011;61000;48.120;11.548;2024-02-04T06:38:14;6.35;;;3.90;;
72864;SDS011;61000;48.120;11.548;2024-02-04T06:40:41;4.80;;;3.42;;
72864;SDS011;61000;48.120;11.548;2024-02-04T06:43:09;6.47;;;4.30;;
72864;SDS011;61000;48.120;11.548;2024-02-04T06:45:36;8.48;;;4.30;;
72864;SDS011;61000;48.120;11.548;2024-02-04T06:48:03;9.05;;;4.18;;
72864;SDS011;61000;48.120;11.548;2024-02-04T06:50:30;5.97;;;3.55;;
72864;SDS011;61000;48.120;11.548;2024-02-04T06:52:57;5.22;;;4.10;;
72864;SDS011;61000;48.120;11.548;2024-02-04T06:55:24;8.23;;;4.57;;
72864;SDS011;61000;48.120;11.548;2024-02-04T06:57:51;6.40;;;4.82;;
72864;SDS011;61000;48.120;11.548;2024-02-04T07:00:19;9.88;;;5.65;;
72864;SDS011;61000;48.120;11.548;2024-02-04T07:02:47;10.07;;;4.88;;
72864;SDS011;61000;48.120;11.548;2024-02-04T07:05:13;7.75;;;4.95;;
72864;SDS011;61000;48.120;11.548;2024-02-04T07:07:41;8.73;;;5.38;;
72864;SDS011;61000;48.120;11.548;2024-02-04T07:10:08;7.70;;;5.25;;
72864;SDS011;61000;48.120;11.548;2024-02-04T07:12:35;7.05;;;5.60;;
72864;SDS011;61000;48.120;11.548;2024-02-04T07:15:02;9.77;;;5.78;;
72864;SDS011;61000;48.120;11.548;2024-02-04T07:17:30;11.48;;;5.70;;
72864;SDS011;61000;48.120;11.548;2024-02-04T07:19:57;7.68;;;5.78;;
72864;SDS011;61000;48.120;11.548;2024-02-04T07:22:24;11.30;;;6.40;;
72864;SDS011;61000;48.120;11.548;2024-02-04T07:24:51;10.13;;;6.93;;
72864;SDS011;61000;48.120;11.548;2024-02-04T07:27:18;10.40;;;6.75;;
72864;SDS011;61000;48.120;11.548;2024-02-04T07:29:45;8.90;;;6.20;;
72864;SDS011;61000;48.120;11.548;2024-02-04T07:32:12;8.98;;;6.70;;
72864;SDS011;61000;48.120;11.548;2024-02-04T07:34:41;7.20;;;6.35;;
72864;SDS011;61000;48.120;11.548;2024-02-04T07:37:08;7.78;;;6.20;;
72864;SDS011;61000;48.120;11.548;2024-02-04T07:39:35;11.52;;;6.03;;
72864;SDS011;61000;48.120;11.548;2024-02-04T07:42:02;9.63;;;5.80;;
72864;SDS011;61000;48.120;11.548;2024-02-04T07:44:29;8.63;;;6.50;;
72864;SDS011;61000;48.120;11.548;2024-02-04T07:46:56;10.63;;;6.60;;
72864;SDS011;61000;48.120;11.548;2024-02-04T07:49:22;8.70;;;5.85;;
72864;SDS011;61000;48.120;11.548;2024-02-04T07:51:51;6.93;;;5.40;;
72864;SDS011;61000;48.120;11.548;2024-02-04T07:54:17;11.07;;;5.07;;
72864;SDS011;61000;48.120;11.548;2024-02-04T07:56:44;9.75;;;5.40;;
72864;SDS011;61000;48.120;11.548;2024-02-04T07:59:11;7.93;;;5.10;;
72864;SDS011;61000;48.120;11.548;2024-02-04T08:01:38;8.80;;;5.82;;
72864;SDS011;61000;48.120;11.548;2024-02-04T08:04:05;7.15;;;5.20;;
72864;SDS011;61000;48.120;11.548;2024-02-04T08:06:33;7.20;;;4.43;;
72864;SDS011;61000;48.120;11.548;2024-02-04T08:09:02;11.45;;;5.25;;
72864;SDS011;61000;48.120;11.548;2024-02-04T08:11:29;8.68;;;5.93;;
72864;SDS011;61000;48.120;11.548;2024-02-04T08:13:56;7.63;;;4.55;;
72864;SDS011;61000;48.120;11.548;2024-02-04T08:16:22;9.10;;;6.80;;
72864;SDS011;61000;48.120;11.548;2024-02-04T08:18:50;7.65;;;4.22;;
72864;SDS011;61000;48.120;11.548;2024-02-04T08:21:16;7.05;;;5.65;;
72864;SDS011;61000;48.120;11.548;2024-02-04T08:23:43;8.82;;;4.68;;
72864;SDS011;61000;48.120;11.548;2024-02-04T08:26:12;5.75;;;3.75;;
72864;SDS011;61000;48.120;11.548;2024-02-04T08:28:39;9.20;;;4.20;;
72864;SDS011;61000;48.120;11.548;2024-02-04T08:31:06;9.43;;;3.85;;
72864;SDS011;61000;48.120;11.548;2024-02-04T08:33:32;5.88;;;3.75;;
72864;SDS011;61000;48.120;11.548;2024-02-04T08:35:59;9.45;;;3.42;;
72864;SDS011;61000;48.120;11.548;2024-02-04T08:38:26;5.15;;;3.50;;
72864;SDS011;61000;48.120;11.548;2024-02-04T08:40:53;9.45;;;4.40;;
72864;SDS011;61000;48.120;11.548;2024-02-04T08:43:21;5.15;;;3.60;;
72864;SDS011;61000;48.120;11.548;2024-02-04T08:45:48;7.10;;;3.80;;
72864;SDS011;61000;48.120;11.548;2024-02-04T08:48:15;6.25;;;3.80;;
72864;SDS011;61000;48.120;11.548;2024-02-04T08:50:42;6.32;;;3.88;;
72864;SDS011;61000;48.120;11.548;2024-02-04T08:53:09;6.70;;;3.85;;
72864;SDS011;61000;48.120;11.548;2024-02-04T08:55:36;5.88;;;4.50;;
72864;SDS011;61000;48.120;11.548;2024-02-04T08:58:03;5.82;;;3.28;;
72864;SDS011;61000;48.120;11.548;2024-02-04T09:00:31;5.57;;;3.30;;
72864;SDS011;61000;48.120;11.548;2024-02-04T09:02:58;9.40;;;3.97;;
72864;SDS011;61000;48.120;11.548;2024-02-04T09:05:25;6.07;;;3.47;;
72864;SDS011;61000;48.120;11.548;2024-02-04T09:07:52;6.65;;;3.85;;
72864;SDS011;61000;48.120;11.548;2024-02-04T09:10:20;7.97;;;3.53;;
72864;SDS011;61000;48.120;11.548;2024-02-04T09:12:47;5.65;;;3.67;;
72864;SDS011;61000;48.120;11.548;2024-02-04T09:15:14;6.50;;;3.53;;
72864;SDS011;61000;48.120;11.548;2024-02-04T09:17:42;15.98;;;3.63;;
72864;SDS011;61000;48.120;11.548;2024-02-04T09:20:10;9.43;;;4.20;;
72864;SDS011;61000;48.120;11.548;2024-02-04T09:22:37;8.10;;;4.95;;
72864;SDS011;61000;48.120;11.548;2024-02-04T09:25:05;7.63;;;3.90;;
72864;SDS011;61000;48.120;11.548;2024-02-04T09:27:32;5.43;;;3.60;;
72864;SDS011;61000;48.120;11.548;2024-02-04T09:29:59;6.32;;;4.18;;
72864;SDS011;61000;48.120;11.548;2024-02-04T09:32:28;4.45;;;3.83;;
72864;SDS011;61000;48.120;11.548;2024-02-04T09:34:56;4.70;;;3.75;;
72864;SDS011;61000;48.120;11.548;2024-02-04T09:37:24;10.05;;;4.00;;
72864;SDS011;61000;48.120;11.548;2024-02-04T09:39:51;7.50;;;5.10;;
72864;SDS011;61000;48.120;11.548;2024-02-04T09:42:18;10.02;;;3.88;;
72864;SDS011;61000;48.120;11.548;2024-02-04T09:44:47;9.20;;;4.07;;
72864;SDS011;61000;48.120;11.548;2024-02-04T09:47:14;8.13;;;3.83;;
72864;SDS011;61000;48.120;11.548;2024-02-04T09:49:44;6.85;;;4.38;;
72864;SDS011;61000;48.120;11.548;2024-02-04T09:52:12;8.48;;;4.35;;
72864;SDS011;61000;48.120;11.548;2024-02-04T09:54:43;6.20;;;4.18;;
72864;SDS011;61000;48.120;11.548;2024-02-04T09:57:12;6.28;;;3.97;;
72864;SDS011;61000;48.120;11.548;2024-02-04T09:59:40;9.93;;;4.32;;
72864;SDS011;61000;48.120;11.548;2024-02-04T10:02:08;8.90;;;4.68;;
72864;SDS011;61000;48.120;11.548;2024-02-04T10:04:41;6.05;;;4.60;;
72864;SDS011;61000;48.120;11.548;2024-02-04T10:07:08;7.25;;;4.05;;
72864;SDS011;61000;48.120;11.548;2024-02-04T10:09:36;7.18;;;4.15;;
72864;SDS011;61000;48.120;11.548;2024-02-04T10:12:04;7.68;;;4.28;;
72864;SDS011;61000;48.120;11.548;2024-02-04T10:14:33;11.35;;;4.10;;
72864;SDS011;61000;48.120;11.548;2024-02-04T10:17:00;6.50;;;4.60;;
72864;SDS011;61000;48.120;11.548;2024-02-04T10:19:27;8.48;;;3.85;;
72864;SDS011;61000;48.120;11.548;2024-02-04T10:21:57;10.45;;;5.85;;
72864;SDS011;61000;48.120;11.548;2024-02-04T10:24:25;5.80;;;4.07;;
72864;SDS011;61000;48.120;11.548;2024-02-04T10:26:56;5.97;;;4.00;;
72864;SDS011;61000;48.120;11.548;2024-02-04T10:29:24;8.35;;;4.10;;
72864;SDS011;61000;48.120;11.548;2024-02-04T10:31:52;5.47;;;4.22;;
72864;SDS011;61000;48.120;11.548;2024-02-04T10:34:20;6.10;;;3.70;;
72864;SDS011;61000;48.120;11.548;2024-02-04T10:36:47;6.45;;;3.75;;
72864;SDS011;61000;48.120;11.548;2024-02-04T10:39:14;8.10;;;4.18;;
72864;SDS011;61000;48.120;11.548;2024-02-04T10:41:43;5.97;;;4.20;;
72864;SDS011;61000;48.120;11.548;2024-02-04T10:44:17;5.05;;;3.65;;
72864;SDS011;61000;48.120;11.548;2024-02-04T10:52:44;7.53;;;3.22;;
72864;SDS011;61000;48.120;11.548;2024-02-04T10:58:39;4.20;;;3.15;;
72864;SDS011;61000;48.120;11.548;2024-02-04T11:23:26;7.15;;;2.63;;
72864;SDS011;61000;48.120;11.548;2024-02-04T11:26:03;2.30;;;2.10;;
72864;SDS011;61000;48.120;11.548;2024-02-04T11:28:31;2.90;;;2.33;;
72864;SDS011;61000;48.120;11.548;2024-02-04T11:30:59;5.35;;;3.00;;
72864;SDS011;61000;48.120;11.548;2024-02-04T11:33:27;4.07;;;2.65;;
72864;SDS011;61000;48.120;11.548;2024-02-04T11:35:58;3.70;;;2.60;;
72864;SDS011;61000;48.120;11.548;2024-02-04T11:38:30;3.38;;;2.10;;
72864;SDS011;61000;48.120;11.548;2024-02-04T11:40:58;4.45;;;2.47;;
72864;SDS011;61000;48.120;11.548;2024-02-04T11:43:25;2.30;;;2.10;;
72864;SDS011;61000;48.120;11.548;2024-02-04T11:45:52;2.17;;;1.63;;
72864;SDS011;61000;48.120;11.548;2024-02-04T11:48:20;2.10;;;1.50;;
72864;SDS011;61000;48.120;11.548;2024-02-04T11:51:18;2.38;;;1.80;;
72864;SDS011;61000;48.120;11.548;2024-02-04T11:54:13;3.65;;;1.85;;
72864;SDS011;61000;48.120;11.548;2024-02-04T11:57:07;4.55;;;2.38;;
72864;SDS011;61000;48.120;11.548;2024-02-04T11:59:35;3.00;;;2.00;;
72864;SDS011;61000;48.120;11.548;2024-02-04T12:02:05;8.48;;;2.10;;
72864;SDS011;61000;48.120;11.548;2024-02-04T12:04:35;4.28;;;2.05;;
72864;SDS011;61000;48.120;11.548;2024-02-04T12:07:04;7.00;;;2.35;;
72864;SDS011;61000;48.120;11.548;2024-02-04T12:09:33;4.40;;;1.90;;
72864;SDS011;61000;48.120;11.548;2024-02-04T12:12:01;2.65;;;1.85;;
72864;SDS011;61000;48.120;11.548;2024-02-04T12:14:30;5.68;;;1.88;;
72864;SDS011;61000;48.120;11.548;2024-02-04T12:17:06;2.33;;;1.70;;
72864;SDS011;61000;48.120;11.548;2024-02-04T12:19:38;4.20;;;1.83;;
72864;SDS011;61000;48.120;11.548;2024-02-04T12:22:06;2.72;;;2.00;;
72864;SDS011;61000;48.120;11.548;2024-02-04T12:24:36;3.83;;;1.70;;
72864;SDS011;61000;48.120;11.548;2024-02-04T12:27:05;3.40;;;1.83;;
72864;SDS011;61000;48.120;11.548;2024-02-04T12:29:32;2.17;;;1.60;;
72864;SDS011;61000;48.120;11.548;2024-02-04T12:31:59;3.83;;;2.15;;
72864;SDS011;61000;48.120;11.548;2024-02-04T12:34:30;2.33;;;1.55;;
72864;SDS011;61000;48.120;11.548;2024-02-04T12:44:31;3.17;;;2.10;;
72864;SDS011;61000;48.120;11.548;2024-02-04T12:51:08;3.95;;;1.88;;
72864;SDS011;61000;48.120;11.548;2024-02-04T12:58:17;3.80;;;2.20;;
72864;SDS011;61000;48.120;11.548;2024-02-04T13:04:55;3.17;;;1.92;;
72864;SDS011;61000;48.120;11.548;2024-02-04T13:08:11;4.28;;;2.05;;
72864;SDS011;61000;48.120;11.548;2024-02-04T13:10:55;2.92;;;1.90;;
72864;SDS011;61000;48.120;11.548;2024-02-04T13:13:29;2.58;;;1.95;;
72864;SDS011;61000;48.120;11.548;2024-02-04T13:15:55;2.80;;;1.83;;
72864;SDS011;61000;48.120;11.548;2024-02-04T13:18:25;3.78;;;2.00;;
72864;SDS011;61000;48.120;11.548;2024-02-04T13:21:01;6.28;;;2.15;;
72864;SDS011;61000;48.120;11.548;2024-02-04T13:23:32;2.97;;;1.77;;
72864;SDS011;61000;48.120;11.548;2024-02-04T13:26:03;5.78;;;1.85;;
72864;SDS011;61000;48.120;11.548;2024-02-04T13:28:32;2.88;;;1.65;;
72864;SDS011;61000;48.120;11.548;2024-02-04T13:31:03;3.47;;;1.85;;
72864;SDS011;61000;48.120;11.548;2024-02-04T13:33:32;1.90;;;1.73;;
72864;SDS011;61000;48.120;11.548;2024-02-04T13:36:02;4.18;;;2.00;;
72864;SDS011;61000;48.120;11.548;2024-02-04T13:38:34;3.10;;;1.63;;
72864;SDS011;61000;48.120;11.548;2024-02-04T13:41:07;3.13;;;1.70;;
72864;SDS011;61000;48.120;11.548;2024-02-04T13:43:44;3.40;;;1.52;;
72864;SDS011;61000;48.120;11.548;2024-02-04T13:46:14;3.63;;;2.35;;
72864;SDS011;61000;48.120;11.548;2024-02-04T13:48:41;3.70;;;2.00;;
72864;SDS011;61000;48.120;11.548;2024-02-04T13:51:08;2.25;;;1.70;;
72864;SDS011;61000;48.120;11.548;2024-02-04T13:53:35;4.43;;;1.92;;
72864;SDS011;61000;48.120;11.548;2024-02-04T13:56:02;3.47;;;1.88;;
72864;SDS011;61000;48.120;11.548;2024-02-04T13:58:29;3.42;;;1.80;;
72864;SDS011;61000;48.120;11.548;2024-02-04T14:00:57;2.67;;;1.50;;
72864;SDS011;61000;48.120;11.548;2024-02-04T14:03:25;6.38;;;1.75;;
72864;SDS011;61000;48.120;11.548;2024-02-04T14:05:52;4.28;;;2.03;;
72864;SDS011;61000;48.120;11.548;2024-02-04T14:08:20;2.20;;;2.00;;
72864;SDS011;61000;48.120;11.548;2024-02-04T14:10:47;3.63;;;1.90;;
72864;SDS011;61000;48.120;11.548;2024-02-04T14:13:14;1.75;;;1.58;;
72864;SDS011;61000;48.120;11.548;2024-02-04T14:15:40;4.82;;;1.83;;
72864;SDS011;61000;48.120;11.548;2024-02-04T14:18:09;3.90;;;2.42;;
72864;SDS011;61000;48.120;11.548;2024-02-04T14:20:39;4.63;;;3.55;;
72864;SDS011;61000;48.120;11.548;2024-02-04T14:23:06;5.97;;;2.63;;
72864;SDS011;61000;48.120;11.548;2024-02-04T14:25:34;3.50;;;1.90;;
72864;SDS011;61000;48.120;11.548;2024-02-04T14:28:00;6.80;;;2.63;;
72864;SDS011;61000;48.120;11.548;2024-02-04T14:30:27;2.95;;;2.05;;
72864;SDS011;61000;48.120;11.548;2024-02-04T14:32:54;3.17;;;2.38;;
72864;SDS011;61000;48.120;11.548;2024-02-04T14:35:22;2.65;;;1.70;;
72864;SDS011;61000;48.120;11.548;2024-02-04T14:37:49;4.05;;;2.10;;
72864;SDS011;61000;48.120;11.548;2024-02-04T14:40:17;3.92;;;1.70;;
72864;SDS011;61000;48.120;11.548;2024-02-04T14:42:46;5.20;;;1.90;;
72864;SDS011;61000;48.120;11.548;2024-02-04T14:45:12;4.07;;;2.00;;
72864;SDS011;61000;48.120;11.548;2024-02-04T14:47:42;4.72;;;1.98;;
72864;SDS011;61000;48.120;11.548;2024-02-04T14:50:09;1.98;;;1.83;;
72864;SDS011;61000;48.120;11.548;2024-02-04T14:52:42;3.97;;;2.92;;
72864;SDS011;61000;48.120;11.548;2024-02-04T14:55:08;4.70;;;2.33;;
72864;SDS011;61000;48.120;11.548;2024-02-04T14:57:36;4.15;;;2.38;;
72864;SDS011;61000;48.120;11.548;2024-02-04T15:00:03;5.63;;;1.85;;
72864;SDS011;61000;48.120;11.548;2024-02-04T15:02:31;2.92;;;1.60;;
72864;SDS011;61000;48.120;11.548;2024-02-04T15:04:58;2.80;;;1.92;;
72864;SDS011;61000;48.120;11.548;2024-02-04T15:07:25;2.75;;;1.80;;
72864;SDS011;61000;48.120;11.548;2024-02-04T15:09:53;6.88;;;2.42;;
72864;SDS011;61000;48.120;11.548;2024-02-04T15:12:20;4.82;;;2.53;;
72864;SDS011;61000;48.120;11.548;2024-02-04T15:14:48;8.95;;;3.17;;
72864;SDS011;61000;48.120;11.548;2024-02-04T15:17:15;4.97;;;2.35;;
72864;SDS011;61000;48.120;11.548;2024-02-04T15:19:47;6.55;;;2.70;;
72864;SDS011;61000;48.120;11.548;2024-02-04T15:22:15;5.13;;;2.40;;
72864;SDS011;61000;48.120;11.548;2024-02-04T15:24:42;6.45;;;3.00;;
72864;SDS011;61000;48.120;11.548;2024-02-04T15:27:11;3.42;;;2.30;;
72864;SDS011;61000;48.120;11.548;2024-02-04T15:29:38;2.25;;;1.90;;
72864;SDS011;61000;48.120;11.548;2024-02-04T15:32:08;3.00;;;1.98;;